Abrams, Wisconsin
Current Conditions -  °F | °C
As of 3:35 PM on Friday 19 Dec 2014 (Local Time) from KOCQ Reporting Station
Clear Clear  
Wind Chill: 28°   Ceiling: Unl
Heat Index: 28°   Visibility: 10mi
Dew Point: 22°   Wind: 3mph
Humidity: 80%   Direction: 170°S
Pressure: 30.28"   Gusts: NA
Location:  44.78°N, 88.06°W
Report Text: KOCQ 192135Z AUTO 17003KT 10SM CLR M02/M05 A3028 RMK AO1 T10241055
Loading
Personal Weather Stations






























Interactive Weather Map New forecast layout! Learn more

10-Day Weather Forecast

Advertisements
Track Severe Weather on mobile